sensor_id;sensor_type;location;lat;lon;timestamp;temperature;humidity
10848;DHT22;5477;48.806;9.154;2023-07-29T00:00:52;17.10;99.90
10848;DHT22;5477;48.806;9.154;2023-07-29T00:03:22;17.10;99.90
10848;DHT22;5477;48.806;9.154;2023-07-29T00:05:51;17.10;99.90
10848;DHT22;5477;48.806;9.154;2023-07-29T00:08:19;17.10;99.90
10848;DHT22;5477;48.806;9.154;2023-07-29T00:10:48;17.20;99.90
10848;DHT22;5477;48.806;9.154;2023-07-29T00:13:16;17.20;99.90
10848;DHT22;5477;48.806;9.154;2023-07-29T00:15:47;17.20;99.90
10848;DHT22;5477;48.806;9.154;2023-07-29T00:18:15;17.20;99.90
10848;DHT22;5477;48.806;9.154;2023-07-29T00:20:44;17.20;99.90
10848;DHT22;5477;48.806;9.154;2023-07-29T00:23:13;17.30;99.90
10848;DHT22;5477;48.806;9.154;2023-07-29T00:25:41;17.30;99.90
10848;DHT22;5477;48.806;9.154;2023-07-29T00:28:09;17.30;99.90
10848;DHT22;5477;48.806;9.154;2023-07-29T00:30:37;17.40;99.90
10848;DHT22;5477;48.806;9.154;2023-07-29T00:33:05;17.30;99.90
10848;DHT22;5477;48.806;9.154;2023-07-29T00:35:34;17.30;99.90
10848;DHT22;5477;48.806;9.154;2023-07-29T00:38:01;17.30;99.90
10848;DHT22;5477;48.806;9.154;2023-07-29T00:40:35;17.40;99.90
10848;DHT22;5477;48.806;9.154;2023-07-29T00:43:03;17.40;99.90
10848;DHT22;5477;48.806;9.154;2023-07-29T00:45:32;17.40;99.90
10848;DHT22;5477;48.806;9.154;2023-07-29T00:48:00;17.40;99.90
10848;DHT22;5477;48.806;9.154;2023-07-29T00:50:30;17.40;99.90
10848;DHT22;5477;48.806;9.154;2023-07-29T00:53:00;17.40;99.90
10848;DHT22;5477;48.806;9.154;2023-07-29T00:55:28;17.40;99.90
10848;DHT22;5477;48.806;9.154;2023-07-29T00:57:58;17.50;99.90
10848;DHT22;5477;48.806;9.154;2023-07-29T01:00:26;17.40;99.90
10848;DHT22;5477;48.806;9.154;2023-07-29T01:02:54;17.50;99.90
10848;DHT22;5477;48.806;9.154;2023-07-29T01:05:25;17.50;99.90
10848;DHT22;5477;48.806;9.154;2023-07-29T01:08:01;17.50;99.90
10848;DHT22;5477;48.806;9.154;2023-07-29T01:10:38;17.50;99.90
10848;DHT22;5477;48.806;9.154;2023-07-29T01:13:13;17.60;99.90
10848;DHT22;5477;48.806;9.154;2023-07-29T01:15:50;17.60;99.90
10848;DHT22;5477;48.806;9.154;2023-07-29T01:18:22;17.60;99.90
10848;DHT22;5477;48.806;9.154;2023-07-29T01:20:53;17.60;99.90
10848;DHT22;5477;48.806;9.154;2023-07-29T01:23:25;17.70;99.90
10848;DHT22;5477;48.806;9.154;2023-07-29T01:25:53;17.70;99.90
10848;DHT22;5477;48.806;9.154;2023-07-29T01:28:21;17.70;99.90
10848;DHT22;5477;48.806;9.154;2023-07-29T01:30:52;17.70;99.90
10848;DHT22;5477;48.806;9.154;2023-07-29T01:33:26;17.70;99.90
10848;DHT22;5477;48.806;9.154;2023-07-29T01:35:57;17.70;99.90
10848;DHT22;5477;48.806;9.154;2023-07-29T01:38:30;17.70;99.90
10848;DHT22;5477;48.806;9.154;2023-07-29T01:41:02;17.70;99.90
10848;DHT22;5477;48.806;9.154;2023-07-29T01:43:31;17.60;99.90
10848;DHT22;5477;48.806;9.154;2023-07-29T01:46:00;17.60;99.90
10848;DHT22;5477;48.806;9.154;2023-07-29T01:48:28;17.60;99.90
10848;DHT22;5477;48.806;9.154;2023-07-29T01:50:58;17.60;99.90
10848;DHT22;5477;48.806;9.154;2023-07-29T01:53:26;17.60;99.90
10848;DHT22;5477;48.806;9.154;2023-07-29T01:55:56;17.60;99.90
10848;DHT22;5477;48.806;9.154;2023-07-29T01:58:24;17.60;99.90
10848;DHT22;5477;48.806;9.154;2023-07-29T02:00:53;17.60;99.90
10848;DHT22;5477;48.806;9.154;2023-07-29T02:03:21;17.60;99.90
10848;DHT22;5477;48.806;9.154;2023-07-29T02:05:49;17.60;99.90
10848;DHT22;5477;48.806;9.154;2023-07-29T02:08:17;17.60;99.90
10848;DHT22;5477;48.806;9.154;2023-07-29T02:10:45;17.50;99.90
10848;DHT22;5477;48.806;9.154;2023-07-29T02:13:14;17.50;99.90
10848;DHT22;5477;48.806;9.154;2023-07-29T02:15:42;17.50;99.90
10848;DHT22;5477;48.806;9.154;2023-07-29T02:18:11;17.50;99.90
10848;DHT22;5477;48.806;9.154;2023-07-29T02:20:38;17.50;99.90
10848;DHT22;5477;48.806;9.154;2023-07-29T02:23:07;17.50;99.90
10848;DHT22;5477;48.806;9.154;2023-07-29T02:25:35;17.50;99.90
10848;DHT22;5477;48.806;9.154;2023-07-29T02:28:03;17.40;99.90
10848;DHT22;5477;48.806;9.154;2023-07-29T02:30:33;17.40;99.90
10848;DHT22;5477;48.806;9.154;2023-07-29T02:33:01;17.40;99.90
10848;DHT22;5477;48.806;9.154;2023-07-29T02:35:29;17.40;99.90
10848;DHT22;5477;48.806;9.154;2023-07-29T02:37:58;17.40;99.90
10848;DHT22;5477;48.806;9.154;2023-07-29T02:40:26;17.40;99.90
10848;DHT22;5477;48.806;9.154;2023-07-29T02:42:56;17.40;99.90
10848;DHT22;5477;48.806;9.154;2023-07-29T02:45:24;17.40;99.90
10848;DHT22;5477;48.806;9.154;2023-07-29T02:47:53;17.40;99.90
10848;DHT22;5477;48.806;9.154;2023-07-29T02:50:21;17.30;99.90
10848;DHT22;5477;48.806;9.154;2023-07-29T02:52:49;17.40;99.90
10848;DHT22;5477;48.806;9.154;2023-07-29T02:55:17;17.30;99.90
10848;DHT22;5477;48.806;9.154;2023-07-29T02:57:45;17.40;99.90
10848;DHT22;5477;48.806;9.154;2023-07-29T03:00:14;17.40;99.90
10848;DHT22;5477;48.806;9.154;2023-07-29T03:02:42;17.40;99.90
10848;DHT22;5477;48.806;9.154;2023-07-29T03:05:11;17.40;99.90
10848;DHT22;5477;48.806;9.154;2023-07-29T03:07:41;17.40;99.90
10848;DHT22;5477;48.806;9.154;2023-07-29T03:10:10;17.40;99.90
10848;DHT22;5477;48.806;9.154;2023-07-29T03:12:38;17.40;99.90
10848;DHT22;5477;48.806;9.154;2023-07-29T03:15:08;17.40;99.90
10848;DHT22;5477;48.806;9.154;2023-07-29T03:17:36;17.40;99.90
10848;DHT22;5477;48.806;9.154;2023-07-29T03:20:05;17.30;99.90
10848;DHT22;5477;48.806;9.154;2023-07-29T03:22:35;17.30;99.90
10848;DHT22;5477;48.806;9.154;2023-07-29T03:25:03;17.30;99.90
10848;DHT22;5477;48.806;9.154;2023-07-29T03:27:32;17.30;99.90
10848;DHT22;5477;48.806;9.154;2023-07-29T03:30:03;17.40;99.90
10848;DHT22;5477;48.806;9.154;2023-07-29T03:32:32;17.40;99.90
10848;DHT22;5477;48.806;9.154;2023-07-29T03:35:00;17.40;99.90
10848;DHT22;5477;48.806;9.154;2023-07-29T03:37:28;17.30;99.90
10848;DHT22;5477;48.806;9.154;2023-07-29T03:39:57;17.30;99.90
10848;DHT22;5477;48.806;9.154;2023-07-29T03:42:29;17.40;99.90
10848;DHT22;5477;48.806;9.154;2023-07-29T03:44:57;17.40;99.90
10848;DHT22;5477;48.806;9.154;2023-07-29T03:47:27;17.40;99.90
10848;DHT22;5477;48.806;9.154;2023-07-29T03:49:56;17.40;99.90
10848;DHT22;5477;48.806;9.154;2023-07-29T03:52:24;17.40;99.90
10848;DHT22;5477;48.806;9.154;2023-07-29T03:54:53;17.40;99.90
10848;DHT22;5477;48.806;9.154;2023-07-29T03:57:22;17.40;99.90
10848;DHT22;5477;48.806;9.154;2023-07-29T03:59:50;17.40;99.90
10848;DHT22;5477;48.806;9.154;2023-07-29T04:02:18;17.40;99.90
10848;DHT22;5477;48.806;9.154;2023-07-29T04:04:46;17.40;99.90
10848;DHT22;5477;48.806;9.154;2023-07-29T04:07:15;17.40;99.90
10848;DHT22;5477;48.806;9.154;2023-07-29T04:09:44;17.40;99.90
10848;DHT22;5477;48.806;9.154;2023-07-29T04:12:12;17.40;99.90
10848;DHT22;5477;48.806;9.154;2023-07-29T04:14:41;17.30;99.90
10848;DHT22;5477;48.806;9.154;2023-07-29T04:17:09;17.30;99.90
10848;DHT22;5477;48.806;9.154;2023-07-29T04:19:37;17.30;99.90
10848;DHT22;5477;48.806;9.154;2023-07-29T04:22:05;17.30;99.90
10848;DHT22;5477;48.806;9.154;2023-07-29T04:24:33;17.30;99.90
10848;DHT22;5477;48.806;9.154;2023-07-29T04:27:02;17.30;99.90
10848;DHT22;5477;48.806;9.154;2023-07-29T04:29:30;17.30;99.90
10848;DHT22;5477;48.806;9.154;2023-07-29T04:31:59;17.40;99.90
10848;DHT22;5477;48.806;9.154;2023-07-29T04:34:29;17.40;99.90
10848;DHT22;5477;48.806;9.154;2023-07-29T04:36:57;17.40;99.90
10848;DHT22;5477;48.806;9.154;2023-07-29T04:39:25;17.40;99.90
10848;DHT22;5477;48.806;9.154;2023-07-29T04:41:53;17.40;99.90
10848;DHT22;5477;48.806;9.154;2023-07-29T04:44:21;17.40;99.90
10848;DHT22;5477;48.806;9.154;2023-07-29T04:46:50;17.40;99.90
10848;DHT22;5477;48.806;9.154;2023-07-29T04:49:19;17.40;99.90
10848;DHT22;5477;48.806;9.154;2023-07-29T04:51:47;17.40;99.90
10848;DHT22;5477;48.806;9.154;2023-07-29T04:54:15;17.40;99.90
10848;DHT22;5477;48.806;9.154;2023-07-29T04:56:43;17.40;99.90
10848;DHT22;5477;48.806;9.154;2023-07-29T04:59:11;17.40;99.90
10848;DHT22;5477;48.806;9.154;2023-07-29T05:01:39;17.40;99.90
10848;DHT22;5477;48.806;9.154;2023-07-29T05:04:09;17.40;99.90
10848;DHT22;5477;48.806;9.154;2023-07-29T05:06:38;17.40;99.90
10848;DHT22;5477;48.806;9.154;2023-07-29T05:09:13;17.30;99.90
10848;DHT22;5477;48.806;9.154;2023-07-29T05:11:41;17.30;99.90
10848;DHT22;5477;48.806;9.154;2023-07-29T05:14:10;17.30;99.90
10848;DHT22;5477;48.806;9.154;2023-07-29T05:16:38;17.30;99.90
10848;DHT22;5477;48.806;9.154;2023-07-29T05:19:06;17.30;99.90
10848;DHT22;5477;48.806;9.154;2023-07-29T05:21:34;17.30;99.90
10848;DHT22;5477;48.806;9.154;2023-07-29T05:24:04;17.30;99.90
10848;DHT22;5477;48.806;9.154;2023-07-29T05:26:32;17.40;99.90
10848;DHT22;5477;48.806;9.154;2023-07-29T05:29:01;17.40;99.90
10848;DHT22;5477;48.806;9.154;2023-07-29T05:31:31;17.40;99.90
10848;DHT22;5477;48.806;9.154;2023-07-29T05:33:59;17.40;99.90
10848;DHT22;5477;48.806;9.154;2023-07-29T05:36:27;17.50;99.90
10848;DHT22;5477;48.806;9.154;2023-07-29T05:38:56;17.50;99.90
10848;DHT22;5477;48.806;9.154;2023-07-29T05:41:25;17.60;99.90
10848;DHT22;5477;48.806;9.154;2023-07-29T05:43:55;17.60;99.90
10848;DHT22;5477;48.806;9.154;2023-07-29T05:46:23;17.60;99.90
10848;DHT22;5477;48.806;9.154;2023-07-29T05:48:51;17.60;99.90
10848;DHT22;5477;48.806;9.154;2023-07-29T05:51:20;17.70;99.90
10848;DHT22;5477;48.806;9.154;2023-07-29T05:53:48;17.70;99.90
10848;DHT22;5477;48.806;9.154;2023-07-29T05:56:16;17.80;99.90
10848;DHT22;5477;48.806;9.154;2023-07-29T05:58:45;17.80;99.90
10848;DHT22;5477;48.806;9.154;2023-07-29T06:01:13;17.90;99.90
10848;DHT22;5477;48.806;9.154;2023-07-29T06:03:41;18.00;99.90
10848;DHT22;5477;48.806;9.154;2023-07-29T06:06:09;18.10;99.90
10848;DHT22;5477;48.806;9.154;2023-07-29T06:08:37;18.20;99.90
10848;DHT22;5477;48.806;9.154;2023-07-29T06:11:05;18.30;99.90
10848;DHT22;5477;48.806;9.154;2023-07-29T06:13:34;18.40;99.90
10848;DHT22;5477;48.806;9.154;2023-07-29T06:16:03;18.60;99.90
10848;DHT22;5477;48.806;9.154;2023-07-29T06:18:31;18.70;99.90
10848;DHT22;5477;48.806;9.154;2023-07-29T06:20:59;18.80;99.90
10848;DHT22;5477;48.806;9.154;2023-07-29T06:23:27;18.80;99.90
10848;DHT22;5477;48.806;9.154;2023-07-29T06:25:55;18.90;99.90
10848;DHT22;5477;48.806;9.154;2023-07-29T06:28:23;18.90;99.90
10848;DHT22;5477;48.806;9.154;2023-07-29T06:30:52;19.00;99.90
10848;DHT22;5477;48.806;9.154;2023-07-29T06:33:21;19.00;99.90
10848;DHT22;5477;48.806;9.154;2023-07-29T06:35:49;19.00;99.90
10848;DHT22;5477;48.806;9.154;2023-07-29T06:38:17;19.10;99.90
10848;DHT22;5477;48.806;9.154;2023-07-29T06:40:48;19.00;99.90
10848;DHT22;5477;48.806;9.154;2023-07-29T06:43:16;19.10;99.90
10848;DHT22;5477;48.806;9.154;2023-07-29T06:45:44;19.10;99.90
10848;DHT22;5477;48.806;9.154;2023-07-29T06:48:12;19.10;99.90
10848;DHT22;5477;48.806;9.154;2023-07-29T06:50:41;19.10;99.90
10848;DHT22;5477;48.806;9.154;2023-07-29T06:53:09;19.20;99.90
10848;DHT22;5477;48.806;9.154;2023-07-29T06:55:37;19.10;99.90
10848;DHT22;5477;48.806;9.154;2023-07-29T06:58:06;19.20;99.90
10848;DHT22;5477;48.806;9.154;2023-07-29T07:00:34;19.20;99.90
10848;DHT22;5477;48.806;9.154;2023-07-29T07:03:02;19.10;99.90
10848;DHT22;5477;48.806;9.154;2023-07-29T07:05:30;19.10;99.90
10848;DHT22;5477;48.806;9.154;2023-07-29T07:08:00;19.10;99.90
10848;DHT22;5477;48.806;9.154;2023-07-29T07:10:28;19.10;99.90
10848;DHT22;5477;48.806;9.154;2023-07-29T07:12:56;19.00;99.90
10848;DHT22;5477;48.806;9.154;2023-07-29T07:15:25;19.00;99.90
10848;DHT22;5477;48.806;9.154;2023-07-29T07:17:53;19.00;99.90
10848;DHT22;5477;48.806;9.154;2023-07-29T07:20:21;19.00;99.90
10848;DHT22;5477;48.806;9.154;2023-07-29T07:22:48;19.00;99.90
10848;DHT22;5477;48.806;9.154;2023-07-29T07:25:18;18.90;99.90
10848;DHT22;5477;48.806;9.154;2023-07-29T07:27:47;18.90;99.90
10848;DHT22;5477;48.806;9.154;2023-07-29T07:30:15;19.00;99.90
10848;DHT22;5477;48.806;9.154;2023-07-29T07:32:43;18.90;99.90
10848;DHT22;5477;48.806;9.154;2023-07-29T07:35:12;19.00;99.90
10848;DHT22;5477;48.806;9.154;2023-07-29T07:37:40;19.00;99.90
10848;DHT22;5477;48.806;9.154;2023-07-29T07:40:08;19.00;99.90
10848;DHT22;5477;48.806;9.154;2023-07-29T07:42:39;19.10;99.90
10848;DHT22;5477;48.806;9.154;2023-07-29T07:45:07;19.10;99.90
10848;DHT22;5477;48.806;9.154;2023-07-29T07:47:35;19.10;99.90
10848;DHT22;5477;48.806;9.154;2023-07-29T07:50:04;19.20;99.90
10848;DHT22;5477;48.806;9.154;2023-07-29T07:52:32;19.20;99.90
10848;DHT22;5477;48.806;9.154;2023-07-29T07:55:00;19.20;99.90
10848;DHT22;5477;48.806;9.154;2023-07-29T07:57:28;19.30;99.90
10848;DHT22;5477;48.806;9.154;2023-07-29T07:59:57;19.30;99.90
10848;DHT22;5477;48.806;9.154;2023-07-29T08:02:25;19.30;99.90
10848;DHT22;5477;48.806;9.154;2023-07-29T08:04:53;19.30;99.90
10848;DHT22;5477;48.806;9.154;2023-07-29T08:07:21;19.40;99.90
10848;DHT22;5477;48.806;9.154;2023-07-29T08:09:49;19.50;99.90
10848;DHT22;5477;48.806;9.154;2023-07-29T08:12:17;19.60;99.90
10848;DHT22;5477;48.806;9.154;2023-07-29T08:14:46;19.70;99.90
10848;DHT22;5477;48.806;9.154;2023-07-29T08:17:15;19.80;99.90
10848;DHT22;5477;48.806;9.154;2023-07-29T08:19:43;19.90;99.90
10848;DHT22;5477;48.806;9.154;2023-07-29T08:22:11;20.00;99.90
10848;DHT22;5477;48.806;9.154;2023-07-29T08:24:39;20.00;99.90
10848;DHT22;5477;48.806;9.154;2023-07-29T08:27:07;20.00;99.90
10848;DHT22;5477;48.806;9.154;2023-07-29T08:29:35;20.00;99.90
10848;DHT22;5477;48.806;9.154;2023-07-29T08:32:03;20.10;99.90
10848;DHT22;5477;48.806;9.154;2023-07-29T08:34:33;20.10;99.90
10848;DHT22;5477;48.806;9.154;2023-07-29T08:37:01;20.20;99.90
10848;DHT22;5477;48.806;9.154;2023-07-29T08:39:29;20.20;99.90
10848;DHT22;5477;48.806;9.154;2023-07-29T08:42:02;20.30;99.90
10848;DHT22;5477;48.806;9.154;2023-07-29T08:44:36;20.40;99.90
10848;DHT22;5477;48.806;9.154;2023-07-29T08:47:07;20.50;99.90
10848;DHT22;5477;48.806;9.154;2023-07-29T08:49:37;20.50;99.90
10848;DHT22;5477;48.806;9.154;2023-07-29T08:52:07;20.70;99.90
10848;DHT22;5477;48.806;9.154;2023-07-29T08:54:35;20.90;99.90
10848;DHT22;5477;48.806;9.154;2023-07-29T08:57:04;21.10;99.90
10848;DHT22;5477;48.806;9.154;2023-07-29T08:59:33;21.20;99.90
10848;DHT22;5477;48.806;9.154;2023-07-29T09:02:01;21.40;99.90
10848;DHT22;5477;48.806;9.154;2023-07-29T09:04:29;21.50;99.90
10848;DHT22;5477;48.806;9.154;2023-07-29T09:06:59;21.70;99.90
10848;DHT22;5477;48.806;9.154;2023-07-29T09:09:27;21.80;99.90
10848;DHT22;5477;48.806;9.154;2023-07-29T09:11:55;21.90;99.90
10848;DHT22;5477;48.806;9.154;2023-07-29T09:14:23;22.00;99.90
10848;DHT22;5477;48.806;9.154;2023-07-29T09:16:52;22.30;99.90
10848;DHT22;5477;48.806;9.154;2023-07-29T09:19:20;22.30;99.90
10848;DHT22;5477;48.806;9.154;2023-07-29T09:21:49;22.20;99.90
10848;DHT22;5477;48.806;9.154;2023-07-29T09:24:21;22.30;99.90
10848;DHT22;5477;48.806;9.154;2023-07-29T09:26:49;22.30;99.90
10848;DHT22;5477;48.806;9.154;2023-07-29T09:29:22;22.40;99.90
10848;DHT22;5477;48.806;9.154;2023-07-29T09:31:50;22.60;99.90
10848;DHT22;5477;48.806;9.154;2023-07-29T09:34:18;22.80;99.90
10848;DHT22;5477;48.806;9.154;2023-07-29T09:36:46;22.90;99.90
10848;DHT22;5477;48.806;9.154;2023-07-29T09:39:14;23.10;99.90
10848;DHT22;5477;48.806;9.154;2023-07-29T09:41:47;23.20;99.90
10848;DHT22;5477;48.806;9.154;2023-07-29T09:44:16;23.40;99.90
10848;DHT22;5477;48.806;9.154;2023-07-29T09:46:46;23.40;99.90
10848;DHT22;5477;48.806;9.154;2023-07-29T09:49:14;23.50;99.90
10848;DHT22;5477;48.806;9.154;2023-07-29T09:51:42;23.60;99.90
10848;DHT22;5477;48.806;9.154;2023-07-29T09:54:11;23.70;99.90
10848;DHT22;5477;48.806;9.154;2023-07-29T09:56:43;23.80;99.90
10848;DHT22;5477;48.806;9.154;2023-07-29T09:59:11;23.90;99.90
10848;DHT22;5477;48.806;9.154;2023-07-29T10:01:40;24.00;99.90
10848;DHT22;5477;48.806;9.154;2023-07-29T10:04:09;24.10;99.90
10848;DHT22;5477;48.806;9.154;2023-07-29T10:06:39;24.00;99.90
10848;DHT22;5477;48.806;9.154;2023-07-29T10:09:11;24.10;99.90
10848;DHT22;5477;48.806;9.154;2023-07-29T10:11:40;24.30;99.90
10848;DHT22;5477;48.806;9.154;2023-07-29T10:14:11;24.70;99.90
10848;DHT22;5477;48.806;9.154;2023-07-29T10:16:40;24.90;99.90
10848;DHT22;5477;48.806;9.154;2023-07-29T10:19:09;24.80;99.90
10848;DHT22;5477;48.806;9.154;2023-07-29T10:21:39;24.40;99.90
10848;DHT22;5477;48.806;9.154;2023-07-29T10:24:15;24.20;99.90
10848;DHT22;5477;48.806;9.154;2023-07-29T10:26:46;24.20;99.90
10848;DHT22;5477;48.806;9.154;2023-07-29T10:29:19;24.00;99.90
10848;DHT22;5477;48.806;9.154;2023-07-29T10:31:48;23.80;99.90
10848;DHT22;5477;48.806;9.154;2023-07-29T10:34:20;23.40;99.90
10848;DHT22;5477;48.806;9.154;2023-07-29T10:36:50;23.30;99.90
10848;DHT22;5477;48.806;9.154;2023-07-29T10:39:18;23.10;99.90
10848;DHT22;5477;48.806;9.154;2023-07-29T10:41:57;23.30;99.90
10848;DHT22;5477;48.806;9.154;2023-07-29T10:44:48;23.20;99.90
10848;DHT22;5477;48.806;9.154;2023-07-29T10:47:19;22.90;99.90
10848;DHT22;5477;48.806;9.154;2023-07-29T10:49:49;22.80;99.90
10848;DHT22;5477;48.806;9.154;2023-07-29T10:52:29;22.90;99.90
10848;DHT22;5477;48.806;9.154;2023-07-29T10:54:57;22.90;99.90
10848;DHT22;5477;48.806;9.154;2023-07-29T10:57:31;23.30;99.90
10848;DHT22;5477;48.806;9.154;2023-07-29T11:00:02;23.80;99.90
10848;DHT22;5477;48.806;9.154;2023-07-29T11:02:32;24.20;99.90
10848;DHT22;5477;48.806;9.154;2023-07-29T11:05:05;24.20;99.90
10848;DHT22;5477;48.806;9.154;2023-07-29T11:07:44;24.50;99.90
10848;DHT22;5477;48.806;9.154;2023-07-29T11:10:12;25.00;99.90
10848;DHT22;5477;48.806;9.154;2023-07-29T11:12:43;25.40;99.90
10848;DHT22;5477;48.806;9.154;2023-07-29T11:15:18;25.50;99.90
10848;DHT22;5477;48.806;9.154;2023-07-29T11:17:48;25.80;99.90
10848;DHT22;5477;48.806;9.154;2023-07-29T11:20:18;25.60;99.90
10848;DHT22;5477;48.806;9.154;2023-07-29T11:22:46;25.70;99.90
10848;DHT22;5477;48.806;9.154;2023-07-29T11:25:16;25.40;99.90
10848;DHT22;5477;48.806;9.154;2023-07-29T11:27:45;25.30;99.90
10848;DHT22;5477;48.806;9.154;2023-07-29T11:30:14;25.10;99.90
10848;DHT22;5477;48.806;9.154;2023-07-29T11:32:45;24.70;99.90
10848;DHT22;5477;48.806;9.154;2023-07-29T11:35:14;24.60;99.90
10848;DHT22;5477;48.806;9.154;2023-07-29T11:37:45;24.60;99.90
10848;DHT22;5477;48.806;9.154;2023-07-29T11:40:14;24.70;99.90
10848;DHT22;5477;48.806;9.154;2023-07-29T11:42:43;24.50;99.90
10848;DHT22;5477;48.806;9.154;2023-07-29T11:45:12;24.60;99.90
10848;DHT22;5477;48.806;9.154;2023-07-29T11:47:45;24.70;99.90
10848;DHT22;5477;48.806;9.154;2023-07-29T11:50:14;24.70;99.90
10848;DHT22;5477;48.806;9.154;2023-07-29T11:52:44;24.80;99.90
10848;DHT22;5477;48.806;9.154;2023-07-29T11:55:14;24.70;99.90
10848;DHT22;5477;48.806;9.154;2023-07-29T11:57:43;24.80;99.90
10848;DHT22;5477;48.806;9.154;2023-07-29T12:00:11;25.10;99.90
10848;DHT22;5477;48.806;9.154;2023-07-29T12:02:45;25.20;99.90
10848;DHT22;5477;48.806;9.154;2023-07-29T12:05:14;25.10;99.90
10848;DHT22;5477;48.806;9.154;2023-07-29T12:07:43;25.30;99.90
10848;DHT22;5477;48.806;9.154;2023-07-29T12:10:12;25.60;99.90
10848;DHT22;5477;48.806;9.154;2023-07-29T12:12:44;25.80;99.90
10848;DHT22;5477;48.806;9.154;2023-07-29T12:15:13;26.00;99.90
10848;DHT22;5477;48.806;9.154;2023-07-29T12:17:41;26.40;99.90
10848;DHT22;5477;48.806;9.154;2023-07-29T12:20:11;26.80;99.90
10848;DHT22;5477;48.806;9.154;2023-07-29T12:22:39;26.70;99.90
10848;DHT22;5477;48.806;9.154;2023-07-29T12:25:08;27.00;99.90
10848;DHT22;5477;48.806;9.154;2023-07-29T12:27:36;27.50;99.90
10848;DHT22;5477;48.806;9.154;2023-07-29T12:30:06;27.50;99.90
10848;DHT22;5477;48.806;9.154;2023-07-29T12:32:43;27.60;99.90
10848;DHT22;5477;48.806;9.154;2023-07-29T12:35:13;27.60;99.90
10848;DHT22;5477;48.806;9.154;2023-07-29T12:37:41;27.80;99.90
10848;DHT22;5477;48.806;9.154;2023-07-29T12:40:21;27.70;99.90
10848;DHT22;5477;48.806;9.154;2023-07-29T12:42:50;27.70;99.90
10848;DHT22;5477;48.806;9.154;2023-07-29T12:45:19;27.70;99.90
10848;DHT22;5477;48.806;9.154;2023-07-29T12:47:49;27.60;99.90
10848;DHT22;5477;48.806;9.154;2023-07-29T12:50:19;28.20;99.50
10848;DHT22;5477;48.806;9.154;2023-07-29T12:52:47;28.60;98.40
10848;DHT22;5477;48.806;9.154;2023-07-29T12:55:15;28.80;98.10
10848;DHT22;5477;48.806;9.154;2023-07-29T12:57:50;29.40;96.00
10848;DHT22;5477;48.806;9.154;2023-07-29T13:00:18;29.40;95.50
10848;DHT22;5477;48.806;9.154;2023-07-29T13:02:46;29.10;95.20
10848;DHT22;5477;48.806;9.154;2023-07-29T13:05:14;28.60;96.20
10848;DHT22;5477;48.806;9.154;2023-07-29T13:07:44;28.60;97.00
10848;DHT22;5477;48.806;9.154;2023-07-29T13:10:12;28.40;96.70
10848;DHT22;5477;48.806;9.154;2023-07-29T13:12:40;28.60;96.90
10848;DHT22;5477;48.806;9.154;2023-07-29T13:15:08;28.60;96.00
10848;DHT22;5477;48.806;9.154;2023-07-29T13:17:36;28.80;96.60
10848;DHT22;5477;48.806;9.154;2023-07-29T13:20:07;28.90;96.20
10848;DHT22;5477;48.806;9.154;2023-07-29T13:22:35;29.40;95.20
10848;DHT22;5477;48.806;9.154;2023-07-29T13:25:05;29.80;94.40
10848;DHT22;5477;48.806;9.154;2023-07-29T13:27:33;30.00;93.90
10848;DHT22;5477;48.806;9.154;2023-07-29T13:30:01;29.90;93.70
10848;DHT22;5477;48.806;9.154;2023-07-29T13:32:29;29.60;93.90
10848;DHT22;5477;48.806;9.154;2023-07-29T13:34:56;29.20;94.60
10848;DHT22;5477;48.806;9.154;2023-07-29T13:37:24;29.30;95.40
10848;DHT22;5477;48.806;9.154;2023-07-29T13:39:52;29.20;94.10
10848;DHT22;5477;48.806;9.154;2023-07-29T13:42:22;28.80;95.40
10848;DHT22;5477;48.806;9.154;2023-07-29T13:44:50;28.40;96.20
10848;DHT22;5477;48.806;9.154;2023-07-29T13:47:18;28.10;96.70
10848;DHT22;5477;48.806;9.154;2023-07-29T13:49:46;27.70;96.30
10848;DHT22;5477;48.806;9.154;2023-07-29T13:52:14;27.80;96.40
10848;DHT22;5477;48.806;9.154;2023-07-29T13:54:42;27.70;96.50
10848;DHT22;5477;48.806;9.154;2023-07-29T13:57:10;27.40;96.90
10848;DHT22;5477;48.806;9.154;2023-07-29T13:59:39;27.30;97.70
10848;DHT22;5477;48.806;9.154;2023-07-29T14:02:07;27.30;97.30
10848;DHT22;5477;48.806;9.154;2023-07-29T14:04:36;27.20;98.10
10848;DHT22;5477;48.806;9.154;2023-07-29T14:07:04;27.20;97.80
10848;DHT22;5477;48.806;9.154;2023-07-29T14:09:32;27.50;97.90
10848;DHT22;5477;48.806;9.154;2023-07-29T14:12:00;28.10;97.70
10848;DHT22;5477;48.806;9.154;2023-07-29T14:14:28;28.70;96.30
10848;DHT22;5477;48.806;9.154;2023-07-29T14:16:58;29.20;95.60
10848;DHT22;5477;48.806;9.154;2023-07-29T14:19:25;29.70;94.10
10848;DHT22;5477;48.806;9.154;2023-07-29T14:21:53;30.30;93.30
10848;DHT22;5477;48.806;9.154;2023-07-29T14:24:21;30.00;93.00
10848;DHT22;5477;48.806;9.154;2023-07-29T14:26:50;30.00;93.10
10848;DHT22;5477;48.806;9.154;2023-07-29T14:29:18;29.60;93.90
10848;DHT22;5477;48.806;9.154;2023-07-29T14:31:46;29.30;94.20
10848;DHT22;5477;48.806;9.154;2023-07-29T14:34:16;28.90;95.00
10848;DHT22;5477;48.806;9.154;2023-07-29T14:36:44;28.50;95.20
10848;DHT22;5477;48.806;9.154;2023-07-29T14:39:12;28.10;96.40
10848;DHT22;5477;48.806;9.154;2023-07-29T14:41:40;27.70;97.10
10848;DHT22;5477;48.806;9.154;2023-07-29T14:44:08;27.50;97.60
10848;DHT22;5477;48.806;9.154;2023-07-29T14:46:35;27.40;98.30
10848;DHT22;5477;48.806;9.154;2023-07-29T14:49:04;27.40;98.80
10848;DHT22;5477;48.806;9.154;2023-07-29T14:51:34;27.20;98.90
10848;DHT22;5477;48.806;9.154;2023-07-29T14:54:02;27.10;99.30
10848;DHT22;5477;48.806;9.154;2023-07-29T14:56:30;26.70;99.40
10848;DHT22;5477;48.806;9.154;2023-07-29T14:58:58;26.30;99.90
10848;DHT22;5477;48.806;9.154;2023-07-29T15:01:26;26.40;99.90
10848;DHT22;5477;48.806;9.154;2023-07-29T15:03:54;26.40;99.90
10848;DHT22;5477;48.806;9.154;2023-07-29T15:06:22;26.40;99.90
10848;DHT22;5477;48.806;9.154;2023-07-29T15:08:51;26.20;99.90
10848;DHT22;5477;48.806;9.154;2023-07-29T15:11:19;26.20;99.90
10848;DHT22;5477;48.806;9.154;2023-07-29T15:13:47;26.30;99.90
10848;DHT22;5477;48.806;9.154;2023-07-29T15:16:15;26.50;99.90
10848;DHT22;5477;48.806;9.154;2023-07-29T15:18:43;26.80;99.90
10848;DHT22;5477;48.806;9.154;2023-07-29T15:21:11;27.00;99.90
10848;DHT22;5477;48.806;9.154;2023-07-29T15:23:39;27.00;99.90
10848;DHT22;5477;48.806;9.154;2023-07-29T15:26:08;27.30;99.90
10848;DHT22;5477;48.806;9.154;2023-07-29T15:28:36;27.50;99.70
10848;DHT22;5477;48.806;9.154;2023-07-29T15:31:04;27.60;99.40
10848;DHT22;5477;48.806;9.154;2023-07-29T15:33:33;27.80;99.10
10848;DHT22;5477;48.806;9.154;2023-07-29T15:36:01;27.90;99.20
10848;DHT22;5477;48.806;9.154;2023-07-29T15:38:29;28.10;99.30
10848;DHT22;5477;48.806;9.154;2023-07-29T15:40:58;28.20;99.50
10848;DHT22;5477;48.806;9.154;2023-07-29T15:43:28;28.90;98.30
10848;DHT22;5477;48.806;9.154;2023-07-29T15:45:56;28.80;98.20
10848;DHT22;5477;48.806;9.154;2023-07-29T15:48:24;28.20;98.70
10848;DHT22;5477;48.806;9.154;2023-07-29T15:50:52;27.70;99.60
10848;DHT22;5477;48.806;9.154;2023-07-29T15:53:20;27.20;99.90
10848;DHT22;5477;48.806;9.154;2023-07-29T15:55:49;27.00;99.90